Time;durP1;ratioP1;P1;durP2;ratioP2;P2;SDS_P1;SDS_P2;PMS_P1;PMS_P2;Temp;Humidity;BMP_temperature;BMP_pressure;BME280_temperature;BME280_humidity;BME280_pressure;Samples;Min_cycle;Max_cycle;Signal;HPM_P1;HPM_P2
2021/10/22 00:01:34;;;;;;;44.33;32.95;;;384.40;2329.60;;;;;;5094754;28;20028;-87
2021/10/22 00:04:00;;;;;;;45.70;35.10;;;384.40;2329.60;;;;;;5095636;28;20020;-87
2021/10/22 00:06:26;;;;;;;41.53;33.38;;;384.40;2329.60;;;;;;5095787;28;20024;-87
2021/10/22 00:08:52;;;;;;;40.53;30.17;;;384.30;2329.60;;;;;;5094311;28;20056;-87
2021/10/22 00:11:18;;;;;;;42.13;31.48;;;384.20;2329.60;;;;;;5094425;28;20066;-88
2021/10/22 00:13:44;;;;;;;40.13;30.08;;;384.20;2329.60;;;;;;5094053;28;20069;-88
2021/10/22 00:16:10;;;;;;;44.72;28.42;;;384.20;2329.60;;;;;;5093779;28;20048;-88
2021/10/22 00:18:36;;;;;;;40.15;28.45;;;384.20;2329.60;;;;;;5094590;28;20381;-87
2021/10/22 00:21:02;;;;;;;34.70;26.38;;;384.20;2329.60;;;;;;5094544;28;20020;-87
2021/10/22 00:23:28;;;;;;;40.05;27.08;;;384.30;2329.60;;;;;;5094207;28;20020;-85
2021/10/22 00:25:54;;;;;;;38.35;27.80;;;384.30;2329.60;;;;;;5094011;28;20029;-87
2021/10/22 00:28:20;;;;;;;40.70;27.40;;;384.40;2329.60;;;;;;5093982;28;20097;-86
2021/10/22 00:30:46;;;;;;;37.20;27.70;;;384.40;2329.60;;;;;;5094029;28;20028;-86
2021/10/22 00:33:12;;;;;;;40.75;29.55;;;384.40;2329.60;;;;;;5094037;28;20020;-85
2021/10/22 00:35:39;;;;;;;35.05;26.27;;;384.40;2329.60;;;;;;5093716;28;20425;-87
2021/10/22 00:38:05;;;;;;;30.83;25.17;;;384.30;2329.60;;;;;;5093743;28;20437;-87
2021/10/22 00:40:31;;;;;;;30.00;23.17;;;384.20;2329.60;;;;;;5094902;28;20071;-84
2021/10/22 00:42:57;;;;;;;27.52;22.13;;;384.30;2329.60;;;;;;5093927;28;20024;-86
2021/10/22 00:45:23;;;;;;;26.95;21.80;;;384.20;2329.60;;;;;;5093789;28;20027;-85
2021/10/22 00:47:50;;;;;;;24.25;18.90;;;384.30;2329.60;;;;;;5094774;28;20039;-88
2021/10/22 00:50:16;;;;;;;25.75;17.83;;;384.20;2329.60;;;;;;5093817;28;20024;-87
2021/10/22 00:52:44;;;;;;;22.52;16.50;;;384.20;2329.60;;;;;;5093683;28;20114;-87
2021/10/22 00:55:11;;;;;;;22.90;15.00;;;384.10;2329.60;;;;;;5093433;28;20095;-83
2021/10/22 00:57:40;;;;;;;20.30;13.85;;;384.00;2329.60;;;;;;5093292;28;20552;-88
2021/10/22 01:00:07;;;;;;;18.60;12.57;;;384.10;2329.60;;;;;;5094590;28;20094;-83
2021/10/22 01:02:36;;;;;;;15.60;12.35;;;384.00;2329.60;;;;;;5093873;28;20031;-87
2021/10/22 01:05:08;;;;;;;18.38;11.70;;;384.00;2329.60;;;;;;5093179;28;20120;-87
2021/10/22 01:07:37;;;;;;;16.88;11.45;;;384.00;2329.60;;;;;;5093268;28;20027;-86
2021/10/22 01:10:04;;;;;;;15.68;10.25;;;384.00;2329.60;;;;;;5093357;28;20061;-88
2021/10/22 01:12:31;;;;;;;12.93;9.10;;;384.00;2329.60;;;;;;5093185;28;20036;-87
2021/10/22 01:15:01;;;;;;;14.07;8.95;;;384.00;2329.60;;;;;;5092846;28;20139;-84
2021/10/22 01:17:42;;;;;;;11.73;8.90;;;359.30;2329.60;;;;;;5093247;28;20042;-86
2021/10/22 01:20:18;;;;;;;12.75;8.40;;;359.30;2329.60;;;;;;5094370;28;20480;-84
2021/10/22 01:22:46;;;;;;;15.45;7.85;;;359.20;2329.60;;;;;;5088509;28;20380;-86
2021/10/22 01:25:15;;;;;;;9.07;6.60;;;359.20;2329.60;;;;;;5092775;28;20020;-84
2021/10/22 01:27:43;;;;;;;9.40;6.85;;;359.20;2329.60;;;;;;5092897;28;20028;-85
2021/10/22 01:30:11;;;;;;;13.63;7.28;;;359.10;2329.60;;;;;;5092873;28;20020;-85
2021/10/22 01:32:37;;;;;;;8.75;5.90;;;359.20;2329.60;;;;;;5092860;28;20032;-84
2021/10/22 01:35:04;;;;;;;10.63;6.20;;;359.20;2329.60;;;;;;5094117;28;20043;-85
2021/10/22 01:37:30;;;;;;;7.65;5.25;;;359.10;2329.60;;;;;;5092668;28;20492;-84
2021/10/22 01:39:57;;;;;;;10.25;5.50;;;359.10;2329.60;;;;;;5092574;28;20024;-83
2021/10/22 01:42:24;;;;;;;8.32;6.50;;;358.90;2329.60;;;;;;5094149;28;20028;-83
2021/10/22 01:44:50;;;;;;;10.77;5.93;;;359.10;2329.60;;;;;;5092557;28;20046;-84
2021/10/22 01:47:17;;;;;;;8.32;5.35;;;359.00;2329.60;;;;;;5092792;28;20047;-81
2021/10/22 01:49:44;;;;;;;8.05;4.53;;;359.00;2329.60;;;;;;5092614;28;20035;-88
2021/10/22 01:52:10;;;;;;;5.82;4.03;;;359.00;2329.60;;;;;;5093822;28;20028;-83
2021/10/22 01:54:36;;;;;;;6.70;3.60;;;359.00;2329.60;;;;;;5093592;28;20377;-82
2021/10/22 01:57:03;;;;;;;5.30;3.60;;;359.00;2329.60;;;;;;5093597;28;20032;-85
2021/10/22 01:59:29;;;;;;;8.73;3.40;;;359.00;2329.60;;;;;;5092468;28;20057;-81
2021/10/22 02:01:55;;;;;;;5.45;3.00;;;359.00;2329.60;;;;;;5092630;28;20085;-87
2021/10/22 02:04:21;;;;;;;5.47;3.08;;;358.90;2329.60;;;;;;5093756;28;20020;-84
2021/10/22 02:06:48;;;;;;;3.78;2.17;;;358.90;2329.60;;;;;;5092373;28;20024;-83
2021/10/22 02:09:15;;;;;;;5.13;2.17;;;358.90;2329.60;;;;;;5093722;28;20016;-87
2021/10/22 02:11:41;;;;;;;7.28;2.63;;;359.00;2329.60;;;;;;5093140;28;20082;-84
2021/10/22 02:14:07;;;;;;;5.45;2.42;;;359.00;2329.60;;;;;;5093411;28;20020;-84
2021/10/22 02:16:33;;;;;;;6.78;3.15;;;359.00;2329.60;;;;;;5096195;28;20035;-82
2021/10/22 02:18:59;;;;;;;4.22;2.33;;;359.00;2329.60;;;;;;5096370;28;20024;-83
2021/10/22 02:21:25;;;;;;;7.47;2.55;;;358.90;2329.60;;;;;;5097411;28;20488;-84
2021/10/22 02:23:52;;;;;;;4.68;2.45;;;358.90;2329.60;;;;;;5096031;28;20056;-83
2021/10/22 02:26:18;;;;;;;4.68;2.08;;;358.90;2329.60;;;;;;5096013;28;20051;-85
2021/10/22 02:28:44;;;;;;;5.60;1.88;;;358.90;2329.60;;;;;;5096083;28;20024;-85
2021/10/22 02:31:10;;;;;;;2.97;1.90;;;358.80;2329.60;;;;;;5096193;28;20031;-85
2021/10/22 02:33:36;;;;;;;6.25;2.20;;;358.80;2329.60;;;;;;5096346;28;20077;-88
2021/10/22 02:36:04;;;;;;;5.40;2.00;;;358.80;2329.60;;;;;;5095822;28;20485;-86
2021/10/22 02:38:31;;;;;;;5.45;2.47;;;358.80;2329.60;;;;;;5096055;28;20108;-86
2021/10/22 02:40:57;;;;;;;5.85;1.77;;;358.70;2329.60;;;;;;5096222;28;20023;-87
2021/10/22 02:43:23;;;;;;;3.15;1.42;;;358.80;2329.60;;;;;;5095655;28;20119;-87
2021/10/22 02:45:50;;;;;;;5.80;1.90;;;358.70;2329.60;;;;;;5095624;28;20031;-84
2021/10/22 02:48:16;;;;;;;7.13;2.38;;;358.80;2329.60;;;;;;5097251;28;20023;-84
2021/10/22 02:50:42;;;;;;;4.72;2.72;;;358.90;2329.60;;;;;;5095932;28;20024;-87
2021/10/22 02:53:08;;;;;;;4.22;1.80;;;358.90;2329.60;;;;;;5096231;28;20105;-85
2021/10/22 02:55:34;;;;;;;3.15;1.35;;;358.80;2329.60;;;;;;5095880;28;20028;-84
2021/10/22 02:58:00;;;;;;;3.92;1.73;;;358.80;2329.60;;;;;;5096069;28;20074;-87
2021/10/22 03:00:26;;;;;;;5.90;2.13;;;358.70;2329.60;;;;;;5097027;28;20043;-88
2021/10/22 03:02:52;;;;;;;5.97;2.10;;;358.70;2329.60;;;;;;5095773;28;20114;-90
2021/10/22 03:05:18;;;;;;;7.13;2.28;;;358.70;2329.60;;;;;;5095712;28;20024;-89
2021/10/22 03:07:44;;;;;;;6.03;2.17;;;358.70;2329.60;;;;;;5096672;28;20471;-89
2021/10/22 03:10:10;;;;;;;5.82;2.15;;;358.70;2329.60;;;;;;5096073;28;20036;-88
2021/10/22 03:12:36;;;;;;;15.95;5.38;;;358.70;2329.60;;;;;;5095746;28;20564;-88
2021/10/22 03:15:07;;;;;;;9.25;4.30;;;358.70;2329.60;;;;;;5095365;28;20056;-89
2021/10/22 03:17:33;;;;;;;10.77;4.15;;;358.70;2329.60;;;;;;5095039;28;20024;-89
2021/10/22 03:19:59;;;;;;;10.68;5.15;;;358.80;2329.60;;;;;;5096640;28;20055;-89
2021/10/22 03:22:25;;;;;;;8.38;3.42;;;358.80;2329.60;;;;;;5095825;28;20070;-89
2021/10/22 03:24:51;;;;;;;5.70;2.60;;;358.70;2329.60;;;;;;5095207;28;20051;-89
2021/10/22 03:27:19;;;;;;;10.32;3.00;;;358.60;2329.60;;;;;;5095605;28;20023;-90
2021/10/22 03:29:45;;;;;;;10.45;3.22;;;358.50;2329.60;;;;;;5096543;28;20028;-90
2021/10/22 03:32:11;;;;;;;6.57;3.55;;;358.60;2329.60;;;;;;5095254;28;20025;-90
2021/10/22 03:34:37;;;;;;;7.90;3.70;;;358.60;2329.60;;;;;;5095095;28;20035;-89
2021/10/22 03:37:03;;;;;;;8.30;4.13;;;358.60;2329.60;;;;;;5095183;28;20036;-89
2021/10/22 03:39:29;;;;;;;8.75;5.80;;;358.60;2329.60;;;;;;5095294;28;20107;-88
2021/10/22 03:41:55;;;;;;;12.27;9.57;;;358.60;2329.60;;;;;;5095032;28;20093;-89
2021/10/22 03:44:21;;;;;;;12.70;11.27;;;358.60;2329.60;;;;;;5096434;28;20024;-89
2021/10/22 03:46:47;;;;;;;16.13;14.52;;;358.60;2329.60;;;;;;5095193;28;20035;-90
2021/10/22 03:49:13;;;;;;;18.42;16.55;;;358.60;2329.60;;;;;;5095101;28;20111;-90
2021/10/22 03:51:39;;;;;;;9.85;8.80;;;358.60;2329.60;;;;;;5095026;28;20020;-91
2021/10/22 03:54:05;;;;;;;6.47;4.18;;;358.50;2329.60;;;;;;5095107;28;20081;-91
2021/10/22 03:56:31;;;;;;;4.20;2.72;;;358.50;2329.60;;;;;;5094965;28;20036;-90
2021/10/22 03:58:57;;;;;;;3.58;2.10;;;358.40;2329.60;;;;;;5094791;28;20084;-92
2021/10/22 04:01:23;;;;;;;7.05;2.08;;;358.40;2329.60;;;;;;5094826;28;20024;-91
2021/10/22 04:03:49;;;;;;;5.28;2.70;;;358.40;2329.60;;;;;;5094847;28;20025;-90
2021/10/22 04:06:15;;;;;;;7.35;3.03;;;333.70;2329.60;;;;;;5094801;28;20028;-94
2021/10/22 04:08:41;;;;;;;6.80;3.40;;;333.70;2329.60;;;;;;5094729;28;20073;-93
2021/10/22 04:11:07;;;;;;;5.10;3.42;;;333.60;2329.60;;;;;;5094759;28;20028;-91
2021/10/22 04:13:33;;;;;;;3.42;2.03;;;333.50;2329.60;;;;;;5094670;28;20483;-93
2021/10/22 04:15:59;;;;;;;2.50;1.48;;;333.50;2329.60;;;;;;5093744;28;20055;-92
2021/10/22 04:18:27;;;;;;;4.10;1.50;;;333.60;2329.60;;;;;;5095637;28;20034;-91
2021/10/22 04:20:53;;;;;;;3.08;1.23;;;333.60;2329.60;;;;;;5094691;28;20035;-92
2021/10/22 04:23:20;;;;;;;6.60;1.50;;;333.50;2329.60;;;;;;5094421;28;20024;-91
2021/10/22 04:25:45;;;;;;;3.42;1.50;;;333.60;2329.60;;;;;;5094547;28;20024;-90
2021/10/22 04:28:12;;;;;;;5.20;1.55;;;333.50;2329.60;;;;;;5094557;28;20096;-90
2021/10/22 04:30:39;;;;;;;4.25;1.25;;;333.60;2329.60;;;;;;5094250;28;20023;-91
2021/10/22 04:33:05;;;;;;;3.63;1.30;;;333.60;2329.60;;;;;;5094276;28;20036;-90
2021/10/22 04:35:32;;;;;;;2.10;1.30;;;333.60;2329.60;;;;;;5094137;28;20028;-92
2021/10/22 04:40:33;;;;;;;4.57;2.20;;;333.60;2329.60;;;;;;5095144;28;20404;-90
2021/10/22 04:43:00;;;;;;;11.00;5.32;;;333.50;2329.60;;;;;;5094106;28;20111;-90
2021/10/22 04:45:26;;;;;;;9.93;5.78;;;333.60;2329.60;;;;;;5094031;28;20031;-90
2021/10/22 04:47:52;;;;;;;14.23;7.65;;;333.60;2329.60;;;;;;5093923;28;20388;-89
2021/10/22 04:50:18;;;;;;;24.77;16.02;;;333.60;2329.60;;;;;;5093981;28;20119;-90
2021/10/22 04:52:45;;;;;;;27.92;14.73;;;333.60;2329.60;;;;;;5093863;28;20055;-90
2021/10/22 04:55:11;;;;;;;26.55;13.32;;;333.60;2329.60;;;;;;5093809;28;20065;-89
2021/10/22 04:57:37;;;;;;;46.65;20.60;;;333.50;2329.60;;;;;;5094009;28;20023;-89
2021/10/22 05:00:05;;;;;;;48.65;20.83;;;333.50;2329.60;;;;;;5093987;28;20538;-89
2021/10/22 05:02:31;;;;;;;38.17;15.32;;;333.50;2329.60;;;;;;5093795;28;20032;-90
2021/10/22 05:04:57;;;;;;;12.63;4.57;;;333.50;2329.60;;;;;;5093843;28;20487;-90
2021/10/22 05:07:23;;;;;;;10.95;3.75;;;333.50;2329.60;;;;;;5093653;28;20027;-90
2021/10/22 05:09:49;;;;;;;9.40;3.20;;;333.50;2329.60;;;;;;5093647;28;20028;-90
2021/10/22 05:12:15;;;;;;;12.18;3.03;;;333.50;2329.60;;;;;;5093493;28;20074;-90
2021/10/22 05:14:41;;;;;;;9.13;3.13;;;333.50;2329.60;;;;;;5093396;28;20047;-89
2021/10/22 05:17:07;;;;;;;6.82;2.97;;;333.50;2329.60;;;;;;5093531;28;20032;-90
2021/10/22 05:19:33;;;;;;;8.70;5.13;;;333.50;2329.60;;;;;;5093506;28;20028;-90
2021/10/22 05:21:59;;;;;;;11.75;3.95;;;333.50;2329.60;;;;;;5093478;28;20491;-90
2021/10/22 05:24:25;;;;;;;7.40;3.72;;;333.50;2329.60;;;;;;5093447;28;20111;-91
2021/10/22 05:26:51;;;;;;;10.18;7.22;;;333.50;2329.60;;;;;;5093449;28;20055;-90
2021/10/22 05:29:17;;;;;;;10.55;7.38;;;333.50;2329.60;;;;;;5093570;28;20552;-85
2021/10/22 05:31:43;;;;;;;11.00;6.78;;;333.50;2329.60;;;;;;5093473;28;20046;-87
2021/10/22 05:34:09;;;;;;;15.75;7.63;;;333.50;2329.60;;;;;;5093546;28;20060;-90
2021/10/22 05:36:35;;;;;;;13.38;6.90;;;333.50;2329.60;;;;;;5093228;28;20063;-87
2021/10/22 05:39:01;;;;;;;9.57;5.40;;;333.50;2329.60;;;;;;5093281;28;20016;-90
2021/10/22 05:41:27;;;;;;;10.30;6.55;;;333.40;2329.60;;;;;;5093321;28;20028;-91
2021/10/22 05:43:53;;;;;;;7.82;4.93;;;333.40;2329.60;;;;;;5093105;28;20028;-90
2021/10/22 05:46:19;;;;;;;8.23;4.68;;;333.30;2329.60;;;;;;5093157;28;20077;-85
2021/10/22 05:48:46;;;;;;;10.48;5.07;;;333.30;2329.60;;;;;;5095712;28;20020;-89
2021/10/22 05:51:13;;;;;;;11.52;5.78;;;333.30;2329.60;;;;;;5097167;28;20115;-86
2021/10/22 05:53:40;;;;;;;9.20;4.70;;;333.30;2329.60;;;;;;5097287;28;20028;-90
2021/10/22 05:56:09;;;;;;;10.07;4.30;;;333.40;2329.60;;;;;;5097187;28;20058;-90
2021/10/22 05:58:36;;;;;;;8.30;4.00;;;333.40;2329.60;;;;;;5097258;28;20031;-91
2021/10/22 06:01:05;;;;;;;11.63;5.32;;;333.40;2329.60;;;;;;5097850;28;20102;-91
2021/10/22 06:03:31;;;;;;;11.70;6.65;;;333.40;2329.60;;;;;;5097347;28;20050;-91
2021/10/22 06:05:57;;;;;;;16.13;6.78;;;333.40;2329.60;;;;;;5097182;28;20024;-87
2021/10/22 06:08:23;;;;;;;15.50;7.00;;;333.50;2329.60;;;;;;5097078;28;20384;-91
2021/10/22 06:10:49;;;;;;;15.15;9.43;;;333.40;2329.60;;;;;;5096936;28;20035;-91
2021/10/22 06:13:15;;;;;;;13.52;8.02;;;333.40;2329.60;;;;;;5096802;28;20088;-90
2021/10/22 06:15:42;;;;;;;11.50;5.43;;;333.30;2329.60;;;;;;5096550;28;20189;-90
2021/10/22 06:18:08;;;;;;;13.15;4.07;;;333.40;2329.60;;;;;;5096703;28;20130;-87
2021/10/22 06:20:53;;;;;;;12.80;5.07;;;333.30;2329.60;;;;;;5096797;28;20028;-91
2021/10/22 06:26:03;;;;;;;11.00;3.90;;;333.40;2329.60;;;;;;5098054;28;20602;-90
2021/10/22 06:28:30;;;;;;;20.40;8.20;;;333.40;2329.60;;;;;;5096705;28;20070;-91
2021/10/22 06:30:57;;;;;;;23.95;10.77;;;333.30;2329.60;;;;;;5096599;28;20027;-90
2021/10/22 06:33:24;;;;;;;33.17;13.65;;;333.30;2329.60;;;;;;5096573;28;20055;-90
2021/10/22 06:35:53;;;;;;;11.93;7.30;;;333.30;2329.60;;;;;;5096527;28;20093;-88
2021/10/22 06:38:19;;;;;;;13.95;7.00;;;333.30;2329.60;;;;;;5096004;28;20024;-81
2021/10/22 06:40:45;;;;;;;14.57;8.93;;;333.30;2329.60;;;;;;5096768;28;20034;-82
2021/10/22 06:43:11;;;;;;;12.90;8.48;;;333.30;2329.60;;;;;;5095417;28;20024;-81
2021/10/22 06:45:37;;;;;;;16.52;8.05;;;333.30;2329.60;;;;;;5095491;28;20373;-81
2021/10/22 06:48:04;;;;;;;14.07;9.18;;;333.30;2329.60;;;;;;5096645;28;20028;-82
2021/10/22 06:50:30;;;;;;;21.27;12.02;;;333.40;2329.60;;;;;;5095330;28;20369;-81
2021/10/22 06:52:56;;;;;;;26.98;14.48;;;333.40;2329.60;;;;;;5095189;28;20442;-81
2021/10/22 06:55:22;;;;;;;30.83;20.73;;;333.40;2329.60;;;;;;5095162;28;20039;-81
2021/10/22 06:57:48;;;;;;;68.75;61.58;;;333.40;2329.60;;;;;;5095097;28;20395;-81
2021/10/22 07:00:14;;;;;;;67.25;60.22;;;333.40;2329.60;;;;;;5095513;28;20029;-88
2021/10/22 07:02:48;;;;;;;33.88;27.98;;;333.40;2329.60;;;;;;5095217;28;20024;-81
2021/10/22 07:05:26;;;;;;;21.05;12.07;;;333.40;2329.60;;;;;;5095003;28;20433;-81
2021/10/22 07:07:53;;;;;;;18.65;10.75;;;333.50;2329.60;;;;;;5096482;28;20020;-85
2021/10/22 07:10:19;;;;;;;28.45;16.48;;;333.50;2329.60;;;;;;5095173;28;20020;-81
2021/10/22 07:12:46;;;;;;;24.77;18.48;;;333.40;2329.60;;;;;;5096171;28;20028;-82
2021/10/22 07:15:12;;;;;;;35.17;21.70;;;333.50;2329.60;;;;;;5095749;28;20051;-81
2021/10/22 07:17:38;;;;;;;195.85;94.70;;;333.50;2329.60;;;;;;5094958;28;20032;-81
2021/10/22 07:20:05;;;;;;;480.05;189.38;;;333.50;2329.60;;;;;;5096029;28;20016;-81
2021/10/22 07:22:33;;;;;;;382.75;165.20;;;333.50;2329.60;;;;;;5094624;28;20073;-81
2021/10/22 07:24:59;;;;;;;164.52;91.10;;;333.50;2329.60;;;;;;5094579;28;20464;-81
2021/10/22 07:27:25;;;;;;;172.15;89.43;;;333.60;2329.60;;;;;;5094520;28;20487;-82
2021/10/22 07:29:51;;;;;;;91.65;59.63;;;333.60;2329.60;;;;;;5094494;28;20039;-81
2021/10/22 07:32:18;;;;;;;56.17;38.97;;;333.70;2329.60;;;;;;5095750;28;20448;-81
2021/10/22 07:34:44;;;;;;;42.63;32.85;;;358.40;2329.60;;;;;;5095987;28;20054;-81
2021/10/22 07:37:10;;;;;;;31.30;23.25;;;358.40;2329.60;;;;;;5094349;28;20036;-80
2021/10/22 07:39:36;;;;;;;28.63;18.48;;;358.40;2329.60;;;;;;5095638;28;20020;-81
2021/10/22 07:42:02;;;;;;;27.95;17.25;;;358.40;2329.60;;;;;;5094297;28;20491;-81
2021/10/22 07:44:29;;;;;;;38.25;23.52;;;358.50;2329.60;;;;;;5095739;28;20024;-81
2021/10/22 07:46:57;;;;;;;36.58;24.13;;;358.50;2329.60;;;;;;5094231;28;20465;-81
2021/10/22 07:49:23;;;;;;;38.65;25.20;;;358.50;2329.60;;;;;;5095383;28;20170;-81
2021/10/22 07:51:50;;;;;;;28.83;19.25;;;358.60;2329.60;;;;;;5095350;28;20377;-81
2021/10/22 07:54:16;;;;;;;27.98;18.85;;;358.60;2329.60;;;;;;5095210;28;20024;-81
2021/10/22 07:56:44;;;;;;;52.30;27.88;;;358.60;2329.60;;;;;;5095119;28;20374;-81
2021/10/22 07:59:13;;;;;;;61.90;31.05;;;358.60;2329.60;;;;;;5095397;28;20099;-80
2021/10/22 08:01:39;;;;;;;60.33;32.65;;;358.70;2329.60;;;;;;5093847;28;20028;-80
2021/10/22 08:04:09;;;;;;;34.85;21.88;;;358.70;2329.60;;;;;;5093827;28;20077;-80
2021/10/22 08:06:37;;;;;;;39.80;22.40;;;358.70;2329.60;;;;;;5095041;28;20024;-80
2021/10/22 08:09:03;;;;;;;52.08;33.65;;;358.70;2329.60;;;;;;5093699;28;20028;-80
2021/10/22 08:11:29;;;;;;;53.10;37.85;;;358.80;2329.60;;;;;;5094954;28;20024;-80
2021/10/22 08:13:55;;;;;;;48.92;35.15;;;358.80;2329.60;;;;;;5093653;28;20021;-80
2021/10/22 08:16:21;;;;;;;45.90;32.83;;;358.80;2329.60;;;;;;5093376;28;20055;-80
2021/10/22 08:18:47;;;;;;;34.17;21.67;;;358.90;2329.60;;;;;;5093568;28;20050;-80
2021/10/22 08:23:43;;;;;;;24.70;15.27;;;358.90;2329.60;;;;;;5094732;28;20024;-80
2021/10/22 08:26:09;;;;;;;25.08;15.70;;;358.80;2329.60;;;;;;5093341;28;20035;-80
2021/10/22 08:28:35;;;;;;;34.45;21.55;;;358.90;2329.60;;;;;;5093348;28;20084;-80
2021/10/22 08:31:01;;;;;;;34.45;20.45;;;358.80;2329.60;;;;;;5094589;28;20517;-80
2021/10/22 08:33:27;;;;;;;30.48;17.98;;;358.90;2329.60;;;;;;5094513;28;20049;-80
2021/10/22 08:35:57;;;;;;;25.45;13.25;;;358.90;2329.60;;;;;;5093327;28;20040;-80
2021/10/22 08:38:28;;;;;;;24.85;13.27;;;359.00;2329.60;;;;;;5093261;28;20028;-80
2021/10/22 08:40:55;;;;;;;19.15;11.52;;;359.10;2329.60;;;;;;5094406;28;20035;-80
2021/10/22 08:43:24;;;;;;;40.72;20.60;;;359.10;2329.60;;;;;;5094259;28;20020;-80
2021/10/22 08:45:55;;;;;;;62.78;30.85;;;359.20;2329.60;;;;;;5092988;28;20032;-80
2021/10/22 08:48:23;;;;;;;49.33;25.83;;;359.30;2329.60;;;;;;5093082;28;20025;-86
2021/10/22 08:50:50;;;;;;;64.93;29.80;;;384.00;2329.60;;;;;;5093024;28;20120;-81
2021/10/22 08:53:16;;;;;;;54.35;23.73;;;384.10;2329.60;;;;;;5092960;28;20028;-80
2021/10/22 08:55:43;;;;;;;28.85;11.48;;;384.10;2329.60;;;;;;5093010;28;20036;-80
2021/10/22 08:58:09;;;;;;;15.95;10.10;;;384.10;2329.60;;;;;;5094115;28;20035;-80
2021/10/22 09:00:35;;;;;;;18.88;11.88;;;384.30;2329.60;;;;;;5094049;28;20091;-79
2021/10/22 09:03:12;;;;;;;13.38;7.97;;;384.60;2329.60;;;;;;5092835;28;20058;-80
2021/10/22 09:06:02;;;;;;;10.52;6.53;;;384.70;2329.60;;;;;;5094012;28;20212;-80
2021/10/22 09:08:37;;;;;;;12.18;5.95;;;384.60;2329.60;;;;;;5092698;28;20024;-79
2021/10/22 09:11:05;;;;;;;9.13;5.97;;;384.50;2329.60;;;;;;5093937;28;20095;-79
2021/10/22 09:13:33;;;;;;;12.85;8.18;;;384.40;2329.60;;;;;;5092636;28;20016;-80
2021/10/22 09:16:17;;;;;;;12.90;7.50;;;384.40;2329.60;;;;;;5093571;28;20097;-81
2021/10/22 09:18:43;;;;;;;;;;;384.30;2329.60;;;;;;5094280;28;20024;-80
2021/10/22 09:21:09;;;;;;;13.38;9.50;;;384.10;2329.60;;;;;;5093897;28;20253;-80
2021/10/22 09:23:38;;;;;;;19.83;10.13;;;384.00;2329.60;;;;;;5093259;28;20426;-80
2021/10/22 09:26:31;;;;;;;20.48;11.15;;;384.00;2329.60;;;;;;5092407;28;20453;-80
2021/10/22 09:29:18;;;;;;;19.15;11.23;;;359.20;2329.60;;;;;;5092391;28;20032;-80
2021/10/22 09:31:49;;;;;;;18.98;11.15;;;359.10;2329.60;;;;;;5092445;28;20055;-81
2021/10/22 09:34:31;;;;;;;22.13;13.35;;;359.10;2329.60;;;;;;5093687;28;20024;-80
2021/10/22 09:36:58;;;;;;;19.90;11.90;;;359.10;2329.60;;;;;;5092142;28;20451;-79
2021/10/22 09:39:24;;;;;;;29.75;18.60;;;359.10;2329.60;;;;;;5092222;28;20020;-80
2021/10/22 09:41:55;;;;;;;24.67;17.08;;;359.10;2329.60;;;;;;5092303;28;20471;-80
2021/10/22 09:44:29;;;;;;;23.02;15.55;;;359.10;2329.60;;;;;;5093555;28;20081;-80
2021/10/22 09:47:04;;;;;;;18.77;10.23;;;359.10;2329.60;;;;;;5092338;28;20084;-79
2021/10/22 09:49:41;;;;;;;15.93;10.18;;;359.20;2329.60;;;;;;5093573;28;20491;-79
2021/10/22 09:52:16;;;;;;;14.77;10.10;;;359.20;2329.60;;;;;;5093455;28;20026;-79
2021/10/22 09:54:43;;;;;;;21.25;13.43;;;359.20;2329.60;;;;;;5093414;28;20056;-78
2021/10/22 09:57:08;;;;;;;20.63;10.63;;;359.20;2329.60;;;;;;5092105;28;20091;-79
2021/10/22 09:59:37;;;;;;;25.00;12.35;;;359.30;2329.60;;;;;;5092176;28;20524;-79
2021/10/22 10:02:07;;;;;;;22.77;12.40;;;384.00;2329.60;;;;;;5092262;28;20175;-79
2021/10/22 10:04:33;;;;;;;25.23;14.70;;;384.00;2329.60;;;;;;5092142;28;20118;-79
2021/10/22 10:07:00;;;;;;;19.67;13.23;;;384.00;2329.60;;;;;;5092106;28;20032;-79
2021/10/22 10:09:28;;;;;;;13.93;9.85;;;384.00;2329.60;;;;;;5093291;28;20024;-79
2021/10/22 10:11:55;;;;;;;14.73;10.73;;;359.30;2329.60;;;;;;5091925;28;20113;-79
2021/10/22 10:14:31;;;;;;;20.92;13.48;;;384.00;2329.60;;;;;;5092035;28;20024;-80
2021/10/22 10:16:58;;;;;;;23.08;18.85;;;384.00;2329.60;;;;;;5092014;28;20040;-80
2021/10/22 10:19:24;;;;;;;21.90;17.45;;;359.30;2329.60;;;;;;5092056;28;20024;-80
2021/10/22 10:21:59;;;;;;;22.45;16.30;;;359.30;2329.60;;;;;;5093472;28;20043;-81
2021/10/22 10:24:40;;;;;;;19.13;12.93;;;359.30;2329.60;;;;;;5093242;28;20066;-80
2021/10/22 10:27:23;;;;;;;19.67;12.32;;;359.30;2329.60;;;;;;5091877;28;20054;-79
2021/10/22 10:29:55;;;;;;;19.73;11.77;;;359.20;2329.60;;;;;;5091857;28;20050;-81
2021/10/22 10:32:24;;;;;;;18.55;11.43;;;359.20;2329.60;;;;;;5091774;28;20071;-80
2021/10/22 10:34:54;;;;;;;17.92;10.07;;;359.20;2329.60;;;;;;5092272;28;20468;-79
2021/10/22 10:37:40;;;;;;;15.77;10.23;;;359.20;2329.60;;;;;;5096732;28;20550;-79
2021/10/22 10:40:35;;;;;;;16.92;10.98;;;359.20;2329.60;;;;;;5096646;28;20559;-80
2021/10/22 10:43:03;;;;;;;23.77;10.02;;;359.20;2329.60;;;;;;5064273;28;20575;-80
2021/10/22 10:45:30;;;;;;;16.27;9.73;;;359.20;2329.60;;;;;;5095204;28;20503;-80
2021/10/22 10:48:05;;;;;;;11.75;7.82;;;359.20;2329.60;;;;;;5095314;28;20529;-80
2021/10/22 10:51:02;;;;;;;12.30;8.85;;;359.20;2329.60;;;;;;5096554;28;20020;-80
2021/10/22 10:53:31;;;;;;;14.63;9.18;;;359.30;2329.60;;;;;;5095143;28;20047;-80
2021/10/22 10:55:57;;;;;;;19.52;12.20;;;359.20;2329.60;;;;;;5095526;28;20472;-79
2021/10/22 10:58:24;;;;;;;22.52;12.70;;;359.20;2329.60;;;;;;5094688;28;20024;-80
2021/10/22 11:00:51;;;;;;;23.73;14.50;;;359.20;2329.60;;;;;;5095069;28;20495;-80
2021/10/22 11:03:26;;;;;;;19.38;12.30;;;359.20;2329.60;;;;;;5095164;28;20028;-79
2021/10/22 11:05:53;;;;;;;18.55;9.43;;;359.10;2329.60;;;;;;5094857;28;20020;-80
2021/10/22 11:08:25;;;;;;;17.13;10.63;;;359.10;2329.60;;;;;;5094967;28;20077;-80
2021/10/22 11:11:16;;;;;;;13.77;10.30;;;359.20;2329.60;;;;;;5096101;28;20113;-79
2021/10/22 11:13:42;;;;;;;18.85;11.50;;;359.20;2329.60;;;;;;5094830;28;20028;-79
2021/10/22 11:16:41;;;;;;;17.08;12.07;;;359.10;2329.60;;;;;;5094332;28;20070;-79
2021/10/22 11:19:08;;;;;;;18.70;12.30;;;359.10;2329.60;;;;;;5089068;28;20032;-80
2021/10/22 11:21:59;;;;;;;20.27;14.38;;;359.20;2329.60;;;;;;5095911;28;20414;-79
2021/10/22 11:24:36;;;;;;;19.40;13.68;;;359.20;2329.60;;;;;;5080603;28;20111;-78
2021/10/22 11:27:08;;;;;;;16.17;11.10;;;359.20;2329.60;;;;;;5094529;28;20028;-79
2021/10/22 11:29:49;;;;;;;18.60;11.48;;;359.20;2329.60;;;;;;5095813;28;20103;-79
2021/10/22 11:32:20;;;;;;;21.85;14.90;;;359.20;2329.60;;;;;;5095745;28;20055;-79
2021/10/22 11:34:55;;;;;;;26.98;16.67;;;359.20;2329.60;;;;;;5094339;28;20016;-79
2021/10/22 11:37:24;;;;;;;22.13;14.65;;;359.20;2329.60;;;;;;5094307;28;20028;-80
2021/10/22 11:39:55;;;;;;;19.02;13.30;;;359.20;2329.60;;;;;;5094285;28;20051;-80
2021/10/22 11:42:28;;;;;;;17.45;11.80;;;359.20;2329.60;;;;;;5094175;28;20503;-80
2021/10/22 11:45:06;;;;;;;20.23;11.73;;;359.20;2329.60;;;;;;5094169;28;20016;-80
2021/10/22 11:47:51;;;;;;;16.80;11.40;;;359.20;2329.60;;;;;;5093877;28;20020;-80
2021/10/22 11:50:29;;;;;;;16.50;10.40;;;359.30;2329.60;;;;;;5095628;28;20077;-80
2021/10/22 11:53:14;;;;;;;14.07;10.13;;;359.20;2329.60;;;;;;5094178;28;20487;-80
2021/10/22 11:55:52;;;;;;;16.77;11.73;;;359.30;2329.60;;;;;;5093919;28;20028;-80
2021/10/22 11:58:22;;;;;;;32.65;22.35;;;359.30;2329.60;;;;;;5094093;28;20042;-80
2021/10/22 12:00:56;;;;;;;21.73;14.45;;;384.00;2329.60;;;;;;5095450;28;20469;-80
2021/10/22 12:03:55;;;;;;;18.40;13.23;;;384.00;2329.60;;;;;;5093837;28;20388;-81
2021/10/22 12:06:22;;;;;;;22.65;14.90;;;384.00;2329.60;;;;;;5093730;28;20069;-81
2021/10/22 12:08:55;;;;;;;30.02;16.55;;;384.10;2329.60;;;;;;5094938;28;20082;-79
2021/10/22 12:11:25;;;;;;;41.65;21.65;;;384.00;2329.60;;;;;;5093694;28;20434;-84
2021/10/22 12:13:52;;;;;;;22.98;14.55;;;384.00;2329.60;;;;;;5093712;28;20024;-80
2021/10/22 12:16:25;;;;;;;18.88;12.65;;;384.00;2329.60;;;;;;5093307;28;20048;-80
2021/10/22 12:18:55;;;;;;;17.85;12.75;;;384.10;2329.60;;;;;;5094880;28;20020;-79
2021/10/22 12:21:29;;;;;;;23.05;14.25;;;384.00;2329.60;;;;;;5093500;28;20024;-80